NCAR-RAP Real-Time Weather Data

Output produced by METARs form (10 April 2020  07:17 UTC)
found at http://weather.rap.ucar.edu/surface/
 
KCNK 100655Z AUTO 10003KT 10SM CLR M01/M11 A3023 RMK AO2 SLP242 T10061106
KCNK 100555Z AUTO 05006KT 10SM CLR 01/M11 A3023 RMK AO2 SLP241 T00111106 10122 20011 401670011 51010
KCNK 100455Z AUTO 04011G18KT 10SM CLR 03/M11 A3022 RMK AO2 SLP236 T00281106
KCNK 100355Z AUTO 04013G21KT 10SM CLR 04/M11 A3022 RMK AO2 SLP237 T00441106
KCNK 100255Z AUTO 03012KT 10SM CLR 06/M09 A3020 RMK AO2 SLP230 T00611089 53031
KCNK 100155Z AUTO 02011KT 10SM CLR 08/M10 A3016 RMK AO2 PK WND 36028/0056 SLP217 T00781100
KCNK 100055Z AUTO 01013G25KT 10SM CLR 09/M10 A3013 RMK AO2 PK WND 36029/0005 SLP206 T00941100
KCNK 092355Z AUTO 01020G30KT 10SM CLR 13/M11 A3010 RMK AO2 PK WND 01030/2352 SLP197 T01281111 10167 20128 53004
KCNK 092255Z AUTO 34020G28KT 10SM CLR 15/M11 A3009 RMK AO2 PK WND 35031/2158 SLP191 T01501111
KCNK 092155Z AUTO 35015G29KT 10SM CLR 16/M08 A3009 RMK AO2 PK WND 32032/2136 SLP190 T01611078
KCNK 092055Z AUTO 33016G24KT 10SM CLR 17/M06 A3009 RMK AO2 PK WND 30031/2043 SLP189 T01671056 58019
KCNK 091955Z AUTO 31010G33KT 10SM SCT095 16/M04 A3011 RMK AO2 PK WND 34033/1946 SLP197 T01611044
KCNK 091855Z AUTO 33017G27KT 10SM OVC100 14/M06 A3013 RMK AO2 PK WND 33027/1851 SLP201 T01391061
KCNK 091755Z AUTO 30017G25KT 10SM BKN100 14/M05 A3015 RMK AO2 PK WND 36029/1729 SLP210 T01391050 10144 20033 58003
KCNK 091655Z AUTO 35013G24KT 10SM CLR 13/M06 A3017 RMK AO2 SLP214 T01331056
KCNK 091555Z AUTO 31006KT 10SM FEW090 12/M04 A3016 RMK AO2 SLP213 T01171044
KCNK 091455Z AUTO 30006KT 10SM CLR 09/M05 A3016 RMK AO2 SLP213 T00941050 51013
KCNK 091355Z AUTO 31004KT 10SM CLR 07/M04 A3016 RMK AO2 SLP214 T00721039
KCNK 091255Z AUTO 35005KT 10SM CLR 05/M04 A3015 RMK AO2 SLP210 T00501044
KCNK 091155Z AUTO 35004KT 10SM CLR 04/M04 A3012 RMK AO2 SLP199 T00391039 10083 20039 53015
KCNK 091055Z AUTO 01003KT 10SM CLR 05/M04 A3010 RMK AO2 SLP190 T00501039
KCNK 090955Z AUTO 33004KT 10SM CLR 05/M03 A3009 RMK AO2 SLP184 T00501028
KCNK 090855Z AUTO 35005KT 10SM CLR 06/M02 A3008 RMK AO2 SLP180 T00561022 50001